Time;durP1;ratioP1;P1;durP2;ratioP2;P2;SDS_P1;SDS_P2;PMS_P1;PMS_P2;Temp;Humidity;BMP_temperature;BMP_pressure;BME280_temperature;BME280_humidity;BME280_pressure;Samples;Min_cycle;Max_cycle;Signal;HPM_P1;HPM_P2
2021/11/27 00:03:58;;;;;;;;;3.00;1.00;;;;;5.59;84.29;98197.63;4995241;28;46040;-82
2021/11/27 00:06:24;;;;;;;;;1.00;1.00;;;;;5.64;84.74;98221.41;4978045;28;45640;-80
2021/11/27 00:08:50;;;;;;;;;2.00;2.00;;;;;5.29;84.75;98164.81;4978176;28;45952;-80
2021/11/27 00:11:16;;;;;;;;;1.50;1.25;;;;;5.54;84.04;98202.41;4996538;28;45812;-82
2021/11/27 00:13:41;;;;;;;;;4.00;2.00;;;;;5.24;83.96;98167.00;4996398;28;46334;-81
2021/11/27 00:16:07;;;;;;;;;1.00;1.00;;;;;5.55;83.86;98216.22;4979718;28;45657;-83
2021/11/27 00:18:35;;;;;;;;;2.00;1.00;;;;;5.17;84.01;98162.50;4995082;28;45682;-83
2021/11/27 00:21:13;;;;;;;;;1.25;0.75;;;;;5.38;84.01;98189.16;4995090;28;46441;-83
2021/11/27 00:23:44;;;;;;;;;1.00;1.00;;;;;5.50;83.94;98219.22;4995334;28;46042;-81
2021/11/27 00:26:13;;;;;;;;;1.00;1.00;;;;;5.20;83.90;98167.41;4995348;28;45626;-82
2021/11/27 00:28:39;;;;;;;;;2.50;1.00;;;;;5.51;83.71;98212.28;4995452;28;45581;-80
2021/11/27 00:34:29;;;;;;;;;1.00;1.00;;;;;5.36;83.85;98197.06;4995329;28;45840;-84
2021/11/27 00:37:00;;;;;;;;;3.50;2.00;;;;;5.28;83.65;98188.34;4994580;28;45881;-80
2021/11/27 00:39:25;;;;;;;;;1.00;1.00;;;;;5.23;83.54;98175.78;4995249;28;45575;-80
2021/11/27 00:41:51;;;;;;;;;1.75;1.00;;;;;5.01;82.80;98144.88;4975913;28;47904;-82
2021/11/27 00:44:17;;;;;;;;;1.00;1.00;;;;;5.22;82.78;98168.09;4994719;28;45757;-82
2021/11/27 00:46:43;;;;;;;;;1.25;1.00;;;;;5.22;82.37;98168.09;4976824;28;45863;-82
2021/11/27 00:49:10;;;;;;;;;1.00;1.00;;;;;5.31;81.87;98186.28;4994358;28;45694;-80
2021/11/27 00:51:35;;;;;;;;;3.00;1.00;;;;;5.37;82.18;98195.31;4994250;28;45565;-82
2021/11/27 00:54:12;;;;;;;;;0.25;0.00;;;;;5.26;81.76;98185.03;4994941;28;45730;-82
2021/11/27 00:56:43;;;;;;;;;2.00;1.50;;;;;5.34;81.57;98193.00;4995112;28;45505;-79
2021/11/27 00:59:09;;;;;;;;;2.50;2.00;;;;;5.55;81.04;98249.97;4995132;28;45759;-85
2021/11/27 01:01:37;;;;;;;;;0.00;0.00;;;;;5.04;79.74;98154.97;4994844;28;46424;-80
2021/11/27 01:04:03;;;;;;;;;2.50;1.00;;;;;5.52;79.94;98245.88;4994882;28;46109;-83
2021/11/27 01:06:29;;;;;;;;;0.75;0.00;;;;;4.83;79.80;98149.88;4977273;28;45675;-83
2021/11/27 01:08:59;;;;;;;;;2.00;0.75;;;;;5.45;79.23;98255.19;4995086;28;45585;-82
2021/11/27 01:11:46;;;;;;;;;0.00;0.00;;;;;4.99;78.29;98173.53;4995722;28;46411;-81
2021/11/27 01:14:15;;;;;;;;;0.00;0.00;;;;;4.90;77.78;98173.53;4997537;28;45962;-82
2021/11/27 01:16:44;;;;;;;;;0.00;0.00;;;;;4.81;77.68;98150.97;4979891;28;45712;-82
2021/11/27 01:19:10;;;;;;;;;0.00;0.00;;;;;5.07;77.44;98189.25;5016012;28;45608;-83
2021/11/27 01:21:43;;;;;;;;;0.00;0.00;;;;;4.53;77.96;98137.81;4997161;28;47564;-80
2021/11/27 01:24:12;;;;;;;;;0.00;0.00;;;;;4.32;77.44;98118.09;5016153;28;45621;-82
2021/11/27 01:26:41;;;;;;;;;0.00;0.00;;;;;4.73;76.95;98187.94;5015750;28;45606;-83
2021/11/27 01:29:10;;;;;;;;;0.00;0.00;;;;;4.62;77.37;98168.13;4996940;28;45535;-84
2021/11/27 01:35:00;;;;;;;;;0.00;0.00;;;;;4.68;77.24;98166.78;5014585;28;46029;-81
2021/11/27 01:37:26;;;;;;;;;0.00;0.00;;;;;4.60;76.87;98164.84;5014905;28;45745;-83
2021/11/27 01:39:52;;;;;;;;;0.00;0.00;;;;;4.72;77.42;98180.28;5015030;28;45883;-83
2021/11/27 01:42:17;;;;;;;;;0.00;0.00;;;;;4.75;77.46;98182.66;4996364;28;48447;-83
2021/11/27 01:44:43;;;;;;;;;0.50;0.00;;;;;4.48;77.54;98142.56;5014348;28;45678;-83
2021/11/27 01:47:09;;;;;;;;;1.00;0.00;;;;;4.63;77.85;98162.00;5014532;28;45678;-82
2021/11/27 01:49:37;;;;;;;;;0.00;0.00;;;;;4.91;77.78;98191.53;5015920;28;45589;-82
2021/11/27 01:52:05;;;;;;;;;0.00;0.00;;;;;4.70;77.88;98161.47;5017644;28;45830;-82
2021/11/27 01:54:37;;;;;;;;;1.50;1.00;;;;;4.57;77.98;98131.41;5016880;28;48953;-84
2021/11/27 01:57:08;;;;;;;;;0.25;0.25;;;;;4.45;77.74;98116.91;4983570;28;45784;-85
2021/11/27 01:59:36;;;;;;;;;0.00;0.00;;;;;4.18;77.96;98068.28;4999675;28;46102;-82
2021/11/27 02:02:06;;;;;;;;;0.50;0.25;;;;;4.90;78.11;98178.72;4999266;28;48648;-84
2021/11/27 02:04:34;;;;;;;;;0.00;0.00;;;;;4.89;78.21;98180.50;4999652;28;48179;-84
2021/11/27 02:06:59;;;;;;;;;0.75;0.00;;;;;4.46;77.40;98122.91;5016186;28;45806;-84
2021/11/27 02:09:30;;;;;;;;;1.25;0.00;;;;;4.89;77.66;98200.41;4999986;28;45627;-82
2021/11/27 02:12:01;;;;;;;;;0.00;0.00;;;;;4.64;77.38;98148.06;5017713;28;45656;-83
2021/11/27 02:14:27;;;;;;;;;0.50;0.00;;;;;4.88;77.68;98188.41;5000458;28;45596;-85
2021/11/27 02:20:27;;;;;;;;;0.00;0.00;;;;;4.67;76.93;98147.00;5006715;28;45522;-81
2021/11/27 02:22:53;;;;;;;;;0.00;0.00;;;;;4.89;77.20;98183.09;5001398;28;45586;-82
2021/11/27 02:25:22;;;;;;;;;1.00;0.00;;;;;4.74;77.20;98148.09;5002826;28;45768;-82
2021/11/27 02:27:52;;;;;;;;;0.00;0.00;;;;;4.76;76.49;98148.78;5000285;28;45782;-82
2021/11/27 02:30:22;;;;;;;;;1.00;0.00;;;;;4.82;76.33;98163.81;4999040;28;45614;-83
2021/11/27 02:32:49;;;;;;;;;0.25;0.00;;;;;4.75;77.43;98144.53;4982022;28;46965;-81
2021/11/27 02:35:15;;;;;;;;;0.00;0.00;;;;;4.87;76.50;98155.63;5000701;28;46054;-83
2021/11/27 02:37:41;;;;;;;;;0.00;0.00;;;;;4.79;76.14;98138.16;4983690;28;45625;-82
2021/11/27 02:40:08;;;;;;;;;0.00;0.00;;;;;4.74;76.04;98135.13;4998258;28;45655;-84
2021/11/27 02:42:34;;;;;;;;;0.00;0.00;;;;;4.84;75.75;98150.72;4997093;28;47949;-84
2021/11/27 02:45:00;;;;;;;;;0.00;0.00;;;;;4.52;76.14;98099.88;4996620;28;45770;-83
2021/11/27 02:47:25;;;;;;;;;0.00;0.00;;;;;4.68;75.91;98127.06;4996791;28;45673;-81
2021/11/27 02:49:51;;;;;;;;;0.00;0.00;;;;;4.78;75.25;98146.88;4979112;28;45879;-83
2021/11/27 02:52:17;;;;;;;;;0.00;0.00;;;;;4.54;75.47;98107.50;4978342;28;48731;-84
2021/11/27 02:54:42;;;;;;;;;0.00;0.00;;;;;4.18;75.20;98051.91;4999114;28;45656;-82
2021/11/27 02:57:08;;;;;;;;;1.00;0.00;;;;;4.67;75.64;98139.22;5008194;28;45628;-83
2021/11/27 02:59:33;;;;;;;;;0.00;0.00;;;;;4.64;75.84;98140.28;5008431;28;45802;-83
2021/11/27 03:05:22;;;;;;;;;0.00;0.00;;;;;4.58;75.77;98119.28;5010068;28;45644;-82
2021/11/27 03:07:49;;;;;;;;;2.00;0.00;;;;;4.29;75.92;98095.84;4994631;28;45593;-82
2021/11/27 03:10:18;;;;;;;;;0.00;0.00;;;;;4.32;75.43;98090.38;5017464;28;45351;-84
2021/11/27 03:12:46;;;;;;;;;1.00;0.00;;;;;4.04;75.48;98037.56;5017960;28;45576;-85
2021/11/27 03:21:38;;;;;;;;;0.00;0.00;;;;;4.31;75.75;98088.78;5008054;28;45494;-86
2021/11/27 03:24:05;;;;;;;;;0.75;0.00;;;;;4.20;75.92;98070.75;5000910;28;45569;-84
2021/11/27 03:26:30;;;;;;;;;0.00;0.00;;;;;4.33;75.71;98097.22;4981998;28;47116;-85
2021/11/27 03:28:56;;;;;;;;;0.00;0.00;;;;;4.44;75.72;98104.06;4984026;28;45706;-84
2021/11/27 03:31:22;;;;;;;;;0.00;0.00;;;;;4.41;75.80;98112.94;4985417;28;45629;-85
2021/11/27 03:33:48;;;;;;;;;0.00;0.00;;;;;4.28;76.02;98103.75;5002049;28;45519;-85
2021/11/27 03:36:15;;;;;;;;;0.00;0.00;;;;;4.23;75.88;98065.28;4998439;28;45933;-82
2021/11/27 03:38:41;;;;;;;;;0.00;0.00;;;;;4.10;75.76;98075.06;4997733;28;45623;-83
2021/11/27 03:41:09;;;;;;;;;0.00;0.00;;;;;4.32;75.95;98098.16;4997263;28;45604;-86
2021/11/27 03:43:36;;;;;;;;;0.00;0.00;;;;;4.29;75.98;98102.81;4997576;28;46669;-86
2021/11/27 03:46:02;;;;;;;;;0.00;0.00;;;;;3.84;75.67;98035.81;4997347;28;46809;-84
2021/11/27 03:48:33;;;;;;;;;0.25;0.00;;;;;3.96;75.96;98049.50;4996998;28;45745;-85
2021/11/27 03:51:00;;;;;;;;;0.00;0.00;;;;;3.91;75.66;98036.94;4980844;28;45555;-86
2021/11/27 03:53:30;;;;;;;;;0.00;0.00;;;;;4.11;75.91;98063.72;4980019;28;48485;-84
2021/11/27 03:55:55;;;;;;;;;0.75;0.00;;;;;3.67;75.46;98018.34;4996789;28;45672;-83
2021/11/27 03:58:21;;;;;;;;;0.00;0.00;;;;;3.71;76.11;98015.34;4996422;28;45526;-84
2021/11/27 04:00:54;;;;;;;;;0.00;0.00;;;;;3.97;75.68;98049.38;4995952;28;45577;-83
2021/11/27 04:03:21;;;;;;;;;0.50;0.00;;;;;4.03;75.66;98068.75;4978219;28;47431;-83
2021/11/27 04:05:50;;;;;;;;;0.75;0.00;;;;;3.66;75.57;98001.16;4996139;28;46558;-84
2021/11/27 04:08:17;;;;;;;;;0.00;0.00;;;;;3.75;75.60;98023.66;4995841;28;45613;-84
2021/11/27 04:10:42;;;;;;;;;0.00;0.00;;;;;4.08;75.90;98066.59;4995862;28;45686;-84
2021/11/27 04:13:11;;;;;;;;;0.00;0.00;;;;;3.84;76.04;98030.66;4995202;28;45647;-82
2021/11/27 04:15:40;;;;;;;;;0.00;0.00;;;;;4.01;75.90;98055.09;4995664;28;46310;-84
2021/11/27 04:21:27;;;;;;;;;0.25;0.00;;;;;3.87;75.29;98004.50;4998452;28;45682;-83
2021/11/27 04:23:53;;;;;;;;;0.00;0.00;;;;;4.07;75.21;98033.88;4995947;28;46498;-81
2021/11/27 04:26:20;;;;;;;;;0.50;0.00;;;;;3.82;75.49;97990.31;4978069;28;46274;-84
2021/11/27 04:28:47;;;;;;;;;0.00;0.00;;;;;3.75;75.45;97983.06;4979846;28;45883;-81
2021/11/27 04:31:17;;;;;;;;;0.50;0.00;;;;;4.09;75.68;98057.88;4981344;28;45803;-83
2021/11/27 04:33:45;;;;;;;;;0.00;0.00;;;;;4.08;75.41;98041.50;4980599;28;46543;-83
2021/11/27 04:36:10;;;;;;;;;0.00;0.00;;;;;4.07;75.38;98046.81;4996929;28;46002;-83
2021/11/27 04:38:36;;;;;;;;;0.00;0.00;;;;;4.06;74.88;98045.19;4998019;28;45858;-83
2021/11/27 04:41:05;;;;;;;;;0.00;0.00;;;;;3.99;74.87;98029.38;4998253;28;45703;-82
2021/11/27 04:43:31;;;;;;;;;0.00;0.00;;;;;4.04;75.27;98032.38;4979627;28;47107;-82
2021/11/27 04:45:57;;;;;;;;;0.00;0.00;;;;;3.99;75.19;98036.31;4995221;28;46085;-81
2021/11/27 04:51:44;;;;;;;;;0.00;0.00;;;;;3.82;75.28;98018.78;4996861;28;45640;-84
2021/11/27 04:54:10;;;;;;;;;0.00;0.00;;;;;4.07;75.18;98055.41;4997501;28;46629;-83
2021/11/27 04:56:35;;;;;;;;;0.25;0.00;;;;;3.79;75.38;98005.16;4995513;28;45697;-86
2021/11/27 04:59:00;;;;;;;;;0.00;0.00;;;;;3.79;75.16;98017.28;4996037;28;45419;-84
2021/11/27 05:01:26;;;;;;;;;0.00;0.00;;;;;3.88;75.15;98019.09;4977961;28;45595;-85
2021/11/27 05:03:51;;;;;;;;;0.00;0.00;;;;;4.10;75.14;98047.38;4979051;28;48226;-86
2021/11/27 05:06:17;;;;;;;;;0.00;0.00;;;;;4.10;74.99;98060.31;4995808;28;45613;-84
2021/11/27 05:08:42;;;;;;;;;0.00;0.00;;;;;3.99;74.63;98046.66;4977270;28;45696;-82
2021/11/27 05:11:08;;;;;;;;;0.00;0.00;;;;;3.85;74.49;98018.53;4976953;28;45626;-83
2021/11/27 05:13:33;;;;;;;;;0.00;0.00;;;;;4.12;74.42;98042.88;4994972;28;45552;-80
2021/11/27 05:15:58;;;;;;;;;0.75;0.00;;;;;4.12;74.64;98045.47;4994979;28;45883;-81
2021/11/27 05:21:45;;;;;;;;;1.00;0.00;;;;;4.20;74.42;98039.66;5007423;28;45591;-85
2021/11/27 05:24:12;;;;;;;;;0.00;0.00;;;;;4.07;74.42;98007.97;4999482;28;46544;-89
2021/11/27 05:26:37;;;;;;;;;0.00;0.00;;;;;3.98;74.51;97985.47;5020842;28;45949;-82
2021/11/27 05:29:04;;;;;;;;;0.00;0.00;;;;;4.09;73.83;97986.16;5021189;28;45635;-87
2021/11/27 05:31:30;;;;;;;;;0.50;0.00;;;;;3.99;74.49;97963.78;5018138;28;45599;-83
2021/11/27 05:36:29;;;;;;;;;0.00;0.00;;;;;4.21;74.38;97966.16;5018310;28;45508;-86
2021/11/27 05:38:55;;;;;;;;;0.00;0.00;;;;;3.98;73.66;97937.06;5018595;28;45776;-86
2021/11/27 05:41:20;;;;;;;;;0.00;0.00;;;;;4.44;73.77;98000.41;5018503;28;45617;-85
2021/11/27 05:43:46;;;;;;;;;0.50;0.00;;;;;4.15;73.57;97941.59;5019007;28;45824;-85
2021/11/27 05:46:11;;;;;;;;;1.00;0.00;;;;;4.26;73.83;97973.53;5000219;28;47793;-83
2021/11/27 05:52:08;;;;;;;;;1.00;1.00;;;;;4.52;73.66;98003.97;5018305;28;45631;-83
2021/11/27 05:54:34;;;;;;;;;1.00;0.00;;;;;4.53;73.58;97999.59;5018149;28;45641;-82
2021/11/27 05:57:01;;;;;;;;;0.00;0.00;;;;;4.45;73.37;97989.06;5000347;28;47161;-85
2021/11/27 05:59:26;;;;;;;;;0.00;0.00;;;;;4.37;73.68;97978.59;5018960;28;45795;-87
2021/11/27 06:01:53;;;;;;;;;0.00;0.00;;;;;4.13;73.36;97929.72;5018693;28;45508;-85
2021/11/27 06:04:22;;;;;;;;;0.00;0.00;;;;;4.31;73.24;97959.22;5018621;28;45673;-83
2021/11/27 06:06:48;;;;;;;;;0.00;0.00;;;;;4.56;73.14;98012.28;4999666;28;48493;-82
2021/11/27 06:09:14;;;;;;;;;0.00;0.00;;;;;4.44;72.98;97988.25;5017625;28;45596;-79
2021/11/27 06:11:39;;;;;;;;;0.00;0.00;;;;;4.25;73.39;97959.75;5017216;28;45706;-81
2021/11/27 06:14:05;;;;;;;;;1.00;0.00;;;;;4.27;72.92;97965.59;5017692;28;45610;-82
2021/11/27 06:16:30;;;;;;;;;0.00;0.00;;;;;4.03;73.26;97929.72;5018267;28;45592;-82
2021/11/27 06:22:22;;;;;;;;;1.00;0.00;;;;;4.26;73.25;97932.88;5007112;28;45776;-82
2021/11/27 06:24:51;;;;;;;;;0.00;0.00;;;;;4.55;73.23;97990.72;4982920;28;46983;-82
2021/11/27 06:27:16;;;;;;;;;1.00;0.75;;;;;4.53;72.91;97979.69;4999973;28;46535;-86
2021/11/27 06:29:45;;;;;;;;;0.00;0.00;;;;;4.53;73.14;97984.88;4998373;28;45586;-85
2021/11/27 06:32:11;;;;;;;;;0.00;0.00;;;;;4.33;73.45;97956.47;4997576;28;45804;-84
2021/11/27 06:34:42;;;;;;;;;0.00;0.00;;;;;4.57;73.49;97991.41;4979795;28;46578;-82
2021/11/27 06:37:07;;;;;;;;;0.00;0.00;;;;;4.18;73.12;97923.19;4979422;28;47743;-81
2021/11/27 06:39:33;;;;;;;;;0.00;0.00;;;;;4.30;73.24;97938.59;4997062;28;45544;-82
2021/11/27 06:41:59;;;;;;;;;0.00;0.00;;;;;4.53;73.55;97958.94;5000073;28;45552;-84
2021/11/27 06:44:24;;;;;;;;;0.00;0.00;;;;;4.54;73.07;97963.16;4981730;28;46426;-82
2021/11/27 06:46:56;;;;;;;;;0.00;0.00;;;;;4.68;73.17;97974.06;4997438;28;46272;-83
2021/11/27 06:52:44;;;;;;;;;1.00;0.00;;;;;4.64;73.16;97968.38;4997856;28;45590;-82
2021/11/27 06:58:19;;;;;;;;;0.00;0.00;;;;;4.47;73.71;97946.53;4900335;29;46849;-81
2021/11/27 07:00:44;;;;;;;;;0.00;0.00;;;;;4.53;74.28;97947.75;4898166;29;45653;-81
2021/11/27 07:03:10;;;;;;;;;1.00;0.00;;;;;4.68;73.85;97980.09;4898494;29;45847;-81
2021/11/27 07:05:35;;;;;;;;;0.00;0.00;;;;;4.63;73.87;97957.16;4898122;29;45714;-82
2021/11/27 07:08:07;;;;;;;;;0.00;0.00;;;;;4.35;74.73;97915.69;4898533;29;45956;-84
2021/11/27 07:10:34;;;;;;;;;0.00;0.00;;;;;4.56;74.47;97955.25;4899016;29;45754;-79
2021/11/27 07:13:01;;;;;;;;;0.00;0.00;;;;;4.62;74.36;97959.88;4899180;28;46013;-81
2021/11/27 07:15:30;;;;;;;;;0.00;0.00;;;;;4.09;74.38;97877.38;4901018;29;48194;-84
2021/11/27 07:17:57;;;;;;;;;0.00;0.00;;;;;4.09;74.93;97867.00;4901877;29;47788;-82
2021/11/27 07:20:23;;;;;;;;;0.00;0.00;;;;;4.57;74.56;97969.84;4901415;29;45597;-86
2021/11/27 07:22:48;;;;;;;;;1.00;0.00;;;;;4.21;74.87;97916.94;4915773;28;45565;-84
2021/11/27 07:25:14;;;;;;;;;0.00;0.00;;;;;4.20;74.75;97917.88;4921835;28;45751;-80
2021/11/27 07:27:39;;;;;;;;;0.00;0.00;;;;;4.08;74.95;97909.41;4922250;28;45651;-84
2021/11/27 07:30:09;;;;;;;;;1.00;0.00;;;;;4.33;75.37;97940.91;4921141;28;46115;-85
2021/11/27 07:32:34;;;;;;;;;0.25;0.00;;;;;4.21;75.84;97937.66;4919211;28;45732;-83
2021/11/27 07:38:18;;;;;;;;;0.00;0.00;;;;;3.63;75.30;97857.25;4956487;28;46230;-86
2021/11/27 07:40:43;;;;;;;;;0.00;0.00;;;;;3.99;75.64;97922.34;4937867;28;45819;-84
2021/11/27 07:43:08;;;;;;;;;0.00;0.00;;;;;3.91;76.14;97923.00;4955186;28;45615;-85
2021/11/27 07:45:35;;;;;;;;;0.00;0.00;;;;;4.25;77.04;97985.66;4955649;28;45783;-82
2021/11/27 07:48:01;;;;;;;;;0.00;0.00;;;;;4.10;77.47;97963.69;4956328;28;45747;-84
2021/11/27 07:50:49;;;;;;;;;0.75;0.00;;;;;4.09;78.26;97981.00;4956253;28;45680;-85
2021/11/27 08:00:32;;;;;;;;;;;;;;;;;;;;;
2021/11/27 08:03:47;;;;;;;;;0.00;0.00;;;;;4.26;75.87;97997.66;4804678;29;74403;-83
2021/11/27 08:06:12;;;;;;;;;0.00;0.00;;;;;3.94;76.06;97947.84;4803389;29;45644;-81
2021/11/27 08:08:38;;;;;;;;;0.25;0.00;;;;;4.02;76.10;97969.50;4803442;29;45605;-82
2021/11/27 08:11:05;;;;;;;;;0.00;0.00;;;;;4.00;76.45;97958.47;4803274;29;47335;-81
2021/11/27 08:13:31;;;;;;;;;0.25;0.00;;;;;4.20;76.46;97985.25;4803000;29;45785;-84
2021/11/27 08:15:56;;;;;;;;;0.00;0.00;;;;;4.22;76.32;97997.09;4838476;29;45596;-79
2021/11/27 08:18:22;;;;;;;;;0.00;0.00;;;;;4.19;75.61;97989.59;4839717;29;45578;-83
2021/11/27 08:20:49;;;;;;;;;0.00;0.00;;;;;4.13;75.79;97966.00;4839943;29;45823;-80
2021/11/27 08:23:17;;;;;;;;;0.00;0.00;;;;;4.28;75.92;97998.31;4839610;29;45876;-80
2021/11/27 08:25:43;;;;;;;;;0.00;0.00;;;;;4.29;76.30;98007.75;4839810;29;45784;-84
2021/11/27 08:28:08;;;;;;;;;0.00;0.00;;;;;4.31;75.86;98000.66;4839327;29;45777;-79
2021/11/27 08:30:34;;;;;;;;;0.00;0.00;;;;;4.34;75.68;98002.16;4838875;29;46084;-82
2021/11/27 08:32:59;;;;;;;;;0.00;0.00;;;;;4.20;75.72;97969.69;4862208;29;45785;-81
2021/11/27 08:35:25;;;;;;;;;0.00;0.00;;;;;4.29;76.09;97976.66;4891797;28;45577;-78
2021/11/27 08:37:51;;;;;;;;;0.00;0.00;;;;;4.39;75.32;97987.03;4952985;28;45616;-79
2021/11/27 08:40:16;;;;;;;;;0.00;0.00;;;;;4.08;75.43;97944.84;4998651;28;45534;-78
2021/11/27 08:42:44;;;;;;;;;0.00;0.00;;;;;4.49;75.55;98016.34;5013476;28;45576;-79
2021/11/27 08:45:11;;;;;;;;;0.00;0.00;;;;;4.52;75.68;98013.50;5014562;28;45793;-81
2021/11/27 08:47:37;;;;;;;;;0.00;0.00;;;;;4.55;75.29;98008.03;5014909;28;45947;-84
2021/11/27 08:53:24;;;;;;;;;0.00;0.00;;;;;4.53;75.62;97995.25;5016261;28;45621;-83
2021/11/27 08:55:49;;;;;;;;;0.00;0.00;;;;;4.61;75.52;98010.09;5017371;28;45670;-83
2021/11/27 08:58:15;;;;;;;;;0.00;0.00;;;;;4.65;75.60;98014.88;5017275;28;47096;-84
2021/11/27 09:00:41;;;;;;;;;1.00;0.00;;;;;4.63;75.53;98026.34;4997914;28;48127;-85
2021/11/27 09:03:12;;;;;;;;;1.00;0.00;;;;;4.60;75.79;98008.47;4997606;28;45725;-83
2021/11/27 09:09:04;;;;;;;;;0.00;0.00;;;;;4.58;75.54;97995.66;5015747;28;46082;-86
2021/11/27 09:11:35;;;;;;;;;0.00;0.00;;;;;4.82;74.99;98028.13;4995969;28;47050;-85
2021/11/27 09:14:20;;;;;;;;;0.00;0.00;;;;;4.76;74.61;98008.72;4997232;28;45785;-83
2021/11/27 09:16:55;;;;;;;;;0.00;0.00;;;;;4.67;75.34;97991.41;4997335;28;45573;-84
2021/11/27 09:19:20;;;;;;;;;0.00;0.00;;;;;4.86;74.91;98019.91;5014167;28;46460;-84
2021/11/27 09:21:46;;;;;;;;;0.00;0.00;;;;;4.63;74.66;97996.06;5015259;28;46798;-86
2021/11/27 09:24:12;;;;;;;;;0.00;0.00;;;;;4.56;74.93;97988.94;4994277;28;45919;-82
2021/11/27 09:26:38;;;;;;;;;0.00;0.00;;;;;4.06;75.02;97921.66;5012749;28;45532;-84
2021/11/27 09:29:07;;;;;;;;;1.00;0.00;;;;;4.84;74.93;98034.81;4997218;28;47721;-83
2021/11/27 09:31:38;;;;;;;;;0.00;0.00;;;;;4.38;74.98;97968.06;5014366;28;45488;-83
2021/11/27 09:34:04;;;;;;;;;0.00;0.00;;;;;4.74;74.84;98015.84;4992896;28;45799;-82
2021/11/27 09:36:29;;;;;;;;;1.00;0.00;;;;;4.69;75.17;97992.09;4996023;28;45856;-82
2021/11/27 09:38:54;;;;;;;;;0.00;0.00;;;;;4.97;74.68;98045.72;5014243;28;46630;-82
2021/11/27 09:41:27;;;;;;;;;0.00;0.00;;;;;5.02;74.77;98059.09;4995642;28;47312;-83
2021/11/27 09:43:58;;;;;;;;;0.00;0.00;;;;;4.84;75.13;98010.66;5013366;28;45594;-83
2021/11/27 09:46:26;;;;;;;;;0.00;0.00;;;;;5.10;74.76;98061.03;4995713;28;45598;-84
2021/11/27 09:48:56;;;;;;;;;0.00;0.00;;;;;5.14;75.22;98067.56;5013251;28;45614;-83
2021/11/27 09:51:25;;;;;;;;;0.00;0.00;;;;;5.18;75.15;98063.75;5012824;28;46240;-81
2021/11/27 09:54:19;;;;;;;;;1.00;0.25;;;;;4.88;75.04;98004.22;5013315;28;45733;-79
2021/11/27 09:56:46;;;;;;;;;0.50;0.00;;;;;5.12;74.30;98027.97;5013088;28;45549;-81
2021/11/27 09:59:12;;;;;;;;;0.00;0.00;;;;;5.26;74.93;98048.31;4995510;28;48329;-84
2021/11/27 10:01:40;;;;;;;;;0.00;0.00;;;;;5.36;74.28;98046.50;4995696;28;48255;-78
2021/11/27 10:04:07;;;;;;;;;0.75;0.25;;;;;5.55;74.89;98055.22;5014014;28;45834;-82
2021/11/27 10:06:48;;;;;;;;;0.00;0.00;;;;;5.64;74.31;98068.19;5014455;28;45792;-87
2021/11/27 10:09:22;;;;;;;;;0.00;0.00;;;;;5.32;73.98;98014.00;5013360;28;46791;-82
2021/11/27 10:12:00;;;;;;;;;0.00;0.00;;;;;5.72;73.76;98070.88;5016413;28;47270;-82
2021/11/27 10:14:26;;;;;;;;;0.25;0.00;;;;;5.73;73.46;98056.13;4998812;28;45687;-82
2021/11/27 10:16:57;;;;;;;;;0.00;0.00;;;;;5.89;73.58;98069.34;4998826;28;45663;-82
2021/11/27 10:19:28;;;;;;;;;1.00;1.00;;;;;5.62;74.58;98028.53;5016025;28;45730;-85
2021/11/27 10:22:12;;;;;;;;;;;;;;;;;;;;;
2021/11/27 10:24:39;;;;;;;;;0.00;0.00;;;;;5.75;73.64;98026.47;5015152;28;73417;-81
2021/11/27 10:27:18;;;;;;;;;0.00;0.00;;;;;5.64;74.69;98012.81;5016740;28;45545;-79
2021/11/27 10:29:43;;;;;;;;;0.00;0.00;;;;;6.05;74.07;98079.16;5016456;28;45583;-82
2021/11/27 10:32:15;;;;;;;;;0.00;0.00;;;;;6.04;74.17;98088.75;5016334;28;45788;-80
2021/11/27 10:34:51;;;;;;;;;0.00;0.00;;;;;6.08;74.42;98081.47;4998536;28;45805;-82
2021/11/27 10:37:27;;;;;;;;;0.50;0.00;;;;;5.86;74.33;98041.88;5016771;28;45623;-83
2021/11/27 10:40:14;;;;;;;;;0.00;0.00;;;;;6.19;74.75;98066.50;5015478;28;47567;-81
2021/11/27 10:42:44;;;;;;;;;1.00;1.00;;;;;5.88;75.26;98018.38;5016637;28;45710;-85
2021/11/27 10:45:09;;;;;;;;;0.00;0.00;;;;;6.22;74.38;98079.22;5016757;28;45801;-84
2021/11/27 10:47:35;;;;;;;;;0.00;0.00;;;;;6.21;73.58;98072.38;5016547;28;45787;-84
2021/11/27 10:50:06;;;;;;;;;0.00;0.00;;;;;6.16;73.69;98060.75;5015892;28;45792;-83
2021/11/27 10:52:36;;;;;;;;;0.00;0.00;;;;;6.21;73.45;98068.94;5016068;28;46617;-83
2021/11/27 10:55:18;;;;;;;;;0.00;0.00;;;;;6.19;72.51;98057.91;5015597;28;45681;-81
2021/11/27 10:57:44;;;;;;;;;0.00;0.00;;;;;6.14;73.12;98036.72;5016318;28;45607;-81
2021/11/27 11:00:36;;;;;;;;;1.00;0.00;;;;;6.36;72.81;98067.53;5017738;28;45864;-81
2021/11/27 11:03:04;;;;;;;;;0.00;0.00;;;;;6.43;72.63;98072.94;5018720;28;45948;-80
2021/11/27 11:05:36;;;;;;;;;0.00;0.00;;;;;6.38;72.79;98046.56;5018820;28;45535;-82
2021/11/27 11:08:03;;;;;;;;;0.00;0.00;;;;;6.63;72.73;98077.91;5020296;28;45698;-82
2021/11/27 11:10:39;;;;;;;;;0.00;0.00;;;;;6.73;72.19;98070.84;5016635;28;45466;-82
2021/11/27 11:13:12;;;;;;;;;0.00;0.00;;;;;6.32;71.78;98017.59;5016438;28;46127;-77
2021/11/27 11:15:47;;;;;;;;;0.00;0.00;;;;;6.58;72.25;98080.13;5016894;28;45632;-76
2021/11/27 11:18:25;;;;;;;;;1.00;0.00;;;;;6.29;71.26;98035.25;4995964;28;45686;-81
2021/11/27 11:20:53;;;;;;;;;0.00;0.00;;;;;6.51;71.91;98063.47;5014615;28;45487;-78
2021/11/27 11:23:32;;;;;;;;;0.00;0.00;;;;;6.66;72.20;98059.41;5016063;28;47108;-79
2021/11/27 11:26:01;;;;;;;;;1.00;1.00;;;;;6.60;71.17;98033.16;5016827;28;45842;-79
2021/11/27 11:28:48;;;;;;;;;1.25;0.50;;;;;6.46;71.06;97998.06;5016342;28;45514;-81
2021/11/27 11:31:17;;;;;;;;;0.00;0.00;;;;;6.72;70.85;98039.78;5014785;28;47888;-81
2021/11/27 11:33:47;;;;;;;;;0.00;0.00;;;;;6.56;70.00;98026.63;5016436;28;46109;-81
2021/11/27 11:36:16;;;;;;;;;0.00;0.00;;;;;6.63;70.50;98049.28;5016944;28;45569;-83
2021/11/27 11:38:47;;;;;;;;;0.00;0.00;;;;;6.88;71.36;98088.56;5018066;28;45623;-81
2021/11/27 11:41:15;;;;;;;;;0.00;0.00;;;;;6.88;70.46;98088.56;5018037;28;46275;-84
2021/11/27 11:43:41;;;;;;;;;0.00;0.00;;;;;6.83;69.69;98093.38;5018180;28;46034;-85
2021/11/27 11:46:07;;;;;;;;;0.00;0.00;;;;;6.59;71.24;98049.72;5016481;28;45710;-83
2021/11/27 11:48:33;;;;;;;;;0.00;0.00;;;;;6.84;70.24;98080.22;5015562;28;45760;-83
2021/11/27 11:51:14;;;;;;;;;0.00;0.00;;;;;6.81;70.88;98093.53;5015593;28;46825;-81
2021/11/27 11:53:47;;;;;;;;;1.00;1.00;;;;;6.58;71.40;98048.91;5015554;28;45634;-81
2021/11/27 11:56:16;;;;;;;;;0.00;0.00;;;;;6.74;71.06;98069.91;5017611;28;45875;-84
2021/11/27 11:58:43;;;;;;;;;0.00;0.00;;;;;6.67;71.07;98071.44;5016738;28;45733;-79
2021/11/27 12:01:28;;;;;;;;;0.00;0.00;;;;;6.78;71.31;98085.19;5014677;28;45837;-80
2021/11/27 12:04:04;;;;;;;;;0.00;0.00;;;;;6.71;71.35;98077.16;5014912;28;45619;-80
2021/11/27 12:06:29;;;;;;;;;0.00;0.00;;;;;6.81;71.36;98090.09;4997471;28;45525;-80
2021/11/27 12:08:58;;;;;;;;;1.00;0.75;;;;;6.82;72.37;98097.75;4996010;28;45632;-83
2021/11/27 12:11:46;;;;;;;;;0.00;0.00;;;;;6.84;72.11;98103.66;4997341;28;48397;-83
2021/11/27 12:14:24;;;;;;;;;0.50;0.50;;;;;6.85;71.82;98114.88;5016375;28;46072;-80
2021/11/27 12:17:19;;;;;;;;;0.00;0.00;;;;;6.88;72.13;98106.78;5015934;28;45571;-82
2021/11/27 12:20:00;;;;;;;;;1.00;1.00;;;;;6.81;72.33;98090.09;5016709;28;45927;-83
2021/11/27 12:22:27;;;;;;;;;3.25;1.75;;;;;7.02;72.16;98106.25;5014374;28;45758;-82
2021/11/27 12:25:12;;;;;;;;;6.00;5.00;;;;;6.93;71.59;98094.94;5014256;28;46815;-80
2021/11/27 12:28:12;;;;;;;;;1.75;1.75;;;;;7.03;71.63;98126.94;5014917;28;45693;-79
2021/11/27 12:30:40;;;;;;;;;7.25;5.00;;;;;7.04;71.52;98117.34;4936316;28;45749;-89
2021/11/27 12:33:05;;;;;;;;;5.50;3.00;;;;;6.91;71.79;98101.28;4936980;28;47239;-84
2021/11/27 12:39:02;;;;;;;;;7.25;6.00;;;;;7.01;71.93;98133.28;4934334;28;45751;-86
2021/11/27 12:41:35;;;;;;;;;3.50;2.75;;;;;6.89;71.44;98129.22;4937011;28;45510;-88
2021/11/27 12:44:13;;;;;;;;;6.25;5.00;;;;;6.88;74.81;98135.41;4937716;28;47765;-80
2021/11/27 12:46:42;;;;;;;;;2.00;1.00;;;;;6.45;77.91;98074.44;4938363;28;45584;-86
2021/11/27 12:49:08;;;;;;;;;1.50;1.00;;;;;6.72;75.71;98136.84;4938517;28;45657;-85
2021/11/27 12:54:58;;;;;;;;;1.00;1.00;;;;;6.23;75.79;98106.03;4940102;28;45724;-82
2021/11/27 12:57:38;;;;;;;;;1.00;1.00;;;;;6.32;75.54;98124.19;4937730;28;46655;-80
2021/11/27 13:00:14;;;;;;;;;0.25;0.25;;;;;6.52;75.20;98160.53;4937442;28;45704;-81
2021/11/27 13:03:19;;;;;;;;;1.00;1.00;;;;;6.46;74.39;98161.09;4921524;28;45716;-81
2021/11/27 13:09:31;;;;;;;;;1.00;0.00;;;;;6.34;76.59;98176.03;5016976;28;45768;-87